sensor_id;sensor_type;location;lat;lon;timestamp;P1;durP1;ratioP1;P2;durP2;ratioP2
21886;SDS011;11108;49.988;8.182;2023-01-24T00:00:58;3.60;;;3.40;;
21886;SDS011;11108;49.988;8.182;2023-01-24T00:03:23;3.40;;;3.20;;
21886;SDS011;11108;49.988;8.182;2023-01-24T00:05:49;3.87;;;3.67;;
21886;SDS011;11108;49.988;8.182;2023-01-24T00:08:15;3.97;;;3.67;;
21886;SDS011;11108;49.988;8.182;2023-01-24T00:10:41;3.23;;;3.03;;
21886;SDS011;11108;49.988;8.182;2023-01-24T00:13:06;3.60;;;3.40;;
21886;SDS011;11108;49.988;8.182;2023-01-24T00:15:32;3.50;;;3.30;;
21886;SDS011;11108;49.988;8.182;2023-01-24T00:17:57;3.47;;;3.17;;
21886;SDS011;11108;49.988;8.182;2023-01-24T00:20:23;3.27;;;3.07;;
21886;SDS011;11108;49.988;8.182;2023-01-24T00:22:48;3.67;;;3.47;;
21886;SDS011;11108;49.988;8.182;2023-01-24T00:25:13;3.13;;;2.93;;
21886;SDS011;11108;49.988;8.182;2023-01-24T00:27:38;3.03;;;2.83;;
21886;SDS011;11108;49.988;8.182;2023-01-24T00:30:04;3.90;;;3.60;;
21886;SDS011;11108;49.988;8.182;2023-01-24T00:32:30;4.00;;;3.70;;
21886;SDS011;11108;49.988;8.182;2023-01-24T00:34:55;3.27;;;3.00;;
21886;SDS011;11108;49.988;8.182;2023-01-24T00:37:21;3.80;;;3.50;;
21886;SDS011;11108;49.988;8.182;2023-01-24T00:39:46;3.27;;;3.07;;
21886;SDS011;11108;49.988;8.182;2023-01-24T00:42:12;3.20;;;3.00;;
21886;SDS011;11108;49.988;8.182;2023-01-24T00:44:37;3.90;;;3.60;;
21886;SDS011;11108;49.988;8.182;2023-01-24T00:47:02;3.73;;;3.50;;
21886;SDS011;11108;49.988;8.182;2023-01-24T00:49:28;3.57;;;3.37;;
21886;SDS011;11108;49.988;8.182;2023-01-24T00:51:53;3.70;;;3.40;;
21886;SDS011;11108;49.988;8.182;2023-01-24T00:54:18;2.93;;;2.73;;
21886;SDS011;11108;49.988;8.182;2023-01-24T00:56:43;3.37;;;3.10;;
21886;SDS011;11108;49.988;8.182;2023-01-24T00:59:09;3.50;;;3.30;;
21886;SDS011;11108;49.988;8.182;2023-01-24T01:01:34;3.47;;;3.27;;
21886;SDS011;11108;49.988;8.182;2023-01-24T01:03:59;2.87;;;2.77;;
21886;SDS011;11108;49.988;8.182;2023-01-24T01:06:25;3.40;;;3.20;;
21886;SDS011;11108;49.988;8.182;2023-01-24T01:08:50;3.30;;;3.10;;
21886;SDS011;11108;49.988;8.182;2023-01-24T01:11:15;3.27;;;3.07;;
21886;SDS011;11108;49.988;8.182;2023-01-24T01:13:41;3.23;;;3.03;;
21886;SDS011;11108;49.988;8.182;2023-01-24T01:16:07;3.40;;;3.20;;
21886;SDS011;11108;49.988;8.182;2023-01-24T01:18:33;3.00;;;2.80;;
21886;SDS011;11108;49.988;8.182;2023-01-24T01:20:58;3.33;;;3.13;;
21886;SDS011;11108;49.988;8.182;2023-01-24T01:23:24;4.00;;;3.60;;
21886;SDS011;11108;49.988;8.182;2023-01-24T01:25:49;3.50;;;3.30;;
21886;SDS011;11108;49.988;8.182;2023-01-24T01:28:14;3.13;;;2.93;;
21886;SDS011;11108;49.988;8.182;2023-01-24T01:30:39;3.43;;;3.23;;
21886;SDS011;11108;49.988;8.182;2023-01-24T01:33:04;3.87;;;3.57;;
21886;SDS011;11108;49.988;8.182;2023-01-24T01:35:30;3.20;;;3.00;;
21886;SDS011;11108;49.988;8.182;2023-01-24T01:37:55;3.37;;;3.17;;
21886;SDS011;11108;49.988;8.182;2023-01-24T01:40:20;3.40;;;3.20;;
21886;SDS011;11108;49.988;8.182;2023-01-24T01:42:53;3.27;;;3.07;;
21886;SDS011;11108;49.988;8.182;2023-01-24T01:48:04;3.33;;;3.13;;
21886;SDS011;11108;49.988;8.182;2023-01-24T01:50:37;3.50;;;3.20;;
21886;SDS011;11108;49.988;8.182;2023-01-24T01:53:04;2.83;;;2.73;;
21886;SDS011;11108;49.988;8.182;2023-01-24T01:55:30;3.80;;;3.50;;
21886;SDS011;11108;49.988;8.182;2023-01-24T01:57:57;3.47;;;3.23;;
21886;SDS011;11108;49.988;8.182;2023-01-24T02:00:23;3.57;;;3.27;;
21886;SDS011;11108;49.988;8.182;2023-01-24T02:02:52;3.53;;;3.23;;
21886;SDS011;11108;49.988;8.182;2023-01-24T02:05:19;3.50;;;3.20;;
21886;SDS011;11108;49.988;8.182;2023-01-24T02:07:49;3.23;;;3.03;;
21886;SDS011;11108;49.988;8.182;2023-01-24T02:10:17;3.20;;;3.00;;
21886;SDS011;11108;49.988;8.182;2023-01-24T02:12:43;3.33;;;3.13;;
21886;SDS011;11108;49.988;8.182;2023-01-24T02:15:12;3.63;;;3.33;;
21886;SDS011;11108;49.988;8.182;2023-01-24T02:17:56;3.70;;;3.40;;
21886;SDS011;11108;49.988;8.182;2023-01-24T02:22:59;3.37;;;3.17;;
21886;SDS011;11108;49.988;8.182;2023-01-24T02:28:02;3.60;;;3.30;;
21886;SDS011;11108;49.988;8.182;2023-01-24T02:30:28;3.83;;;3.53;;
21886;SDS011;11108;49.988;8.182;2023-01-24T02:32:54;3.43;;;3.23;;
21886;SDS011;11108;49.988;8.182;2023-01-24T02:35:27;3.60;;;3.30;;
21886;SDS011;11108;49.988;8.182;2023-01-24T02:37:52;2.87;;;2.67;;
21886;SDS011;11108;49.988;8.182;2023-01-24T02:40:18;3.53;;;3.33;;
21886;SDS011;11108;49.988;8.182;2023-01-24T02:42:43;3.00;;;2.90;;
21886;SDS011;11108;49.988;8.182;2023-01-24T02:45:23;3.30;;;3.10;;
21886;SDS011;11108;49.988;8.182;2023-01-24T02:47:49;3.43;;;3.23;;
21886;SDS011;11108;49.988;8.182;2023-01-24T02:50:15;3.80;;;3.50;;
21886;SDS011;11108;49.988;8.182;2023-01-24T02:52:40;3.47;;;3.27;;
21886;SDS011;11108;49.988;8.182;2023-01-24T02:55:24;3.37;;;3.17;;
21886;SDS011;11108;49.988;8.182;2023-01-24T02:57:50;3.10;;;2.90;;
21886;SDS011;11108;49.988;8.182;2023-01-24T03:02:58;2.90;;;2.80;;
21886;SDS011;11108;49.988;8.182;2023-01-24T03:05:23;3.70;;;3.50;;
21886;SDS011;11108;49.988;8.182;2023-01-24T03:07:48;3.30;;;3.10;;
21886;SDS011;11108;49.988;8.182;2023-01-24T03:10:15;3.27;;;3.07;;
21886;SDS011;11108;49.988;8.182;2023-01-24T03:12:41;3.37;;;3.17;;
21886;SDS011;11108;49.988;8.182;2023-01-24T03:15:24;3.97;;;3.67;;
21886;SDS011;11108;49.988;8.182;2023-01-24T03:18:08;3.40;;;3.20;;
21886;SDS011;11108;49.988;8.182;2023-01-24T03:20:52;3.63;;;3.43;;
21886;SDS011;11108;49.988;8.182;2023-01-24T03:23:36;3.40;;;3.20;;
21886;SDS011;11108;49.988;8.182;2023-01-24T03:26:20;3.37;;;3.17;;
21886;SDS011;11108;49.988;8.182;2023-01-24T03:29:04;2.90;;;2.80;;
21886;SDS011;11108;49.988;8.182;2023-01-24T03:31:48;3.43;;;3.23;;
21886;SDS011;11108;49.988;8.182;2023-01-24T03:34:32;3.90;;;3.60;;
21886;SDS011;11108;49.988;8.182;2023-01-24T03:36:58;3.40;;;3.20;;
21886;SDS011;11108;49.988;8.182;2023-01-24T03:39:24;3.07;;;2.87;;
21886;SDS011;11108;49.988;8.182;2023-01-24T03:42:08;3.20;;;3.00;;
21886;SDS011;11108;49.988;8.182;2023-01-24T03:44:33;3.40;;;3.10;;
21886;SDS011;11108;49.988;8.182;2023-01-24T03:46:58;2.90;;;2.80;;
21886;SDS011;11108;49.988;8.182;2023-01-24T03:49:23;3.70;;;3.40;;
21886;SDS011;11108;49.988;8.182;2023-01-24T03:52:07;2.90;;;2.73;;
21886;SDS011;11108;49.988;8.182;2023-01-24T03:54:51;3.37;;;3.17;;
21886;SDS011;11108;49.988;8.182;2023-01-24T03:57:17;3.63;;;3.43;;
21886;SDS011;11108;49.988;8.182;2023-01-24T03:59:42;3.40;;;3.20;;
21886;SDS011;11108;49.988;8.182;2023-01-24T04:02:07;3.57;;;3.37;;
21886;SDS011;11108;49.988;8.182;2023-01-24T04:04:32;3.90;;;3.60;;
21886;SDS011;11108;49.988;8.182;2023-01-24T04:07:16;3.80;;;3.60;;
21886;SDS011;11108;49.988;8.182;2023-01-24T04:09:41;3.40;;;3.20;;
21886;SDS011;11108;49.988;8.182;2023-01-24T04:12:06;3.60;;;3.37;;
21886;SDS011;11108;49.988;8.182;2023-01-24T04:14:31;3.57;;;3.30;;
21886;SDS011;11108;49.988;8.182;2023-01-24T04:16:57;4.10;;;3.80;;
21886;SDS011;11108;49.988;8.182;2023-01-24T04:19:22;3.30;;;3.10;;
21886;SDS011;11108;49.988;8.182;2023-01-24T04:21:47;3.43;;;3.23;;
21886;SDS011;11108;49.988;8.182;2023-01-24T04:24:12;3.67;;;3.40;;
21886;SDS011;11108;49.988;8.182;2023-01-24T04:26:37;3.33;;;3.13;;
21886;SDS011;11108;49.988;8.182;2023-01-24T04:29:03;4.00;;;3.00;;
21886;SDS011;11108;49.988;8.182;2023-01-24T04:31:28;3.40;;;3.20;;
21886;SDS011;11108;49.988;8.182;2023-01-24T04:33:53;3.30;;;3.10;;
21886;SDS011;11108;49.988;8.182;2023-01-24T04:36:18;3.03;;;2.77;;
21886;SDS011;11108;49.988;8.182;2023-01-24T04:38:43;3.80;;;3.30;;
21886;SDS011;11108;49.988;8.182;2023-01-24T04:41:08;4.50;;;2.87;;
21886;SDS011;11108;49.988;8.182;2023-01-24T04:43:37;3.00;;;2.80;;
21886;SDS011;11108;49.988;8.182;2023-01-24T04:46:02;4.03;;;3.20;;
21886;SDS011;11108;49.988;8.182;2023-01-24T04:48:27;3.47;;;3.27;;
21886;SDS011;11108;49.988;8.182;2023-01-24T04:50:57;3.60;;;3.40;;
21886;SDS011;11108;49.988;8.182;2023-01-24T04:53:22;3.70;;;3.37;;
21886;SDS011;11108;49.988;8.182;2023-01-24T04:55:47;3.50;;;3.30;;
21886;SDS011;11108;49.988;8.182;2023-01-24T04:58:12;4.63;;;3.47;;
21886;SDS011;11108;49.988;8.182;2023-01-24T05:00:37;3.70;;;3.27;;
21886;SDS011;11108;49.988;8.182;2023-01-24T05:03:03;3.63;;;3.33;;
21886;SDS011;11108;49.988;8.182;2023-01-24T05:05:28;3.40;;;3.20;;
21886;SDS011;11108;49.988;8.182;2023-01-24T05:07:53;3.70;;;3.40;;
21886;SDS011;11108;49.988;8.182;2023-01-24T05:10:18;3.33;;;3.10;;
21886;SDS011;11108;49.988;8.182;2023-01-24T05:12:46;3.90;;;3.60;;
21886;SDS011;11108;49.988;8.182;2023-01-24T05:15:11;3.40;;;3.20;;
21886;SDS011;11108;49.988;8.182;2023-01-24T05:17:36;4.03;;;3.73;;
21886;SDS011;11108;49.988;8.182;2023-01-24T05:20:02;3.43;;;3.20;;
21886;SDS011;11108;49.988;8.182;2023-01-24T05:22:28;3.40;;;3.20;;
21886;SDS011;11108;49.988;8.182;2023-01-24T05:24:53;3.43;;;3.23;;
21886;SDS011;11108;49.988;8.182;2023-01-24T05:27:18;3.47;;;3.27;;
21886;SDS011;11108;49.988;8.182;2023-01-24T05:29:43;3.10;;;2.90;;
21886;SDS011;11108;49.988;8.182;2023-01-24T05:32:08;3.83;;;3.53;;
21886;SDS011;11108;49.988;8.182;2023-01-24T05:34:34;4.00;;;3.70;;
21886;SDS011;11108;49.988;8.182;2023-01-24T05:36:59;3.63;;;3.33;;
21886;SDS011;11108;49.988;8.182;2023-01-24T05:39:24;3.40;;;3.10;;
21886;SDS011;11108;49.988;8.182;2023-01-24T05:41:49;3.60;;;3.30;;
21886;SDS011;11108;49.988;8.182;2023-01-24T05:44:14;3.40;;;3.20;;
21886;SDS011;11108;49.988;8.182;2023-01-24T05:46:40;3.37;;;3.10;;
21886;SDS011;11108;49.988;8.182;2023-01-24T05:49:07;3.40;;;3.20;;
21886;SDS011;11108;49.988;8.182;2023-01-24T05:51:32;3.87;;;3.57;;
21886;SDS011;11108;49.988;8.182;2023-01-24T05:53:57;3.37;;;3.17;;
21886;SDS011;11108;49.988;8.182;2023-01-24T05:56:22;3.20;;;3.00;;
21886;SDS011;11108;49.988;8.182;2023-01-24T05:58:47;2.90;;;2.70;;
21886;SDS011;11108;49.988;8.182;2023-01-24T06:01:17;3.17;;;2.97;;
21886;SDS011;11108;49.988;8.182;2023-01-24T06:03:43;3.30;;;3.10;;
21886;SDS011;11108;49.988;8.182;2023-01-24T06:06:09;2.90;;;2.70;;
21886;SDS011;11108;49.988;8.182;2023-01-24T06:08:34;2.57;;;2.47;;
21886;SDS011;11108;49.988;8.182;2023-01-24T06:11:04;2.97;;;2.77;;
21886;SDS011;11108;49.988;8.182;2023-01-24T06:13:30;2.87;;;2.67;;
21886;SDS011;11108;49.988;8.182;2023-01-24T06:16:05;3.20;;;3.00;;
21886;SDS011;11108;49.988;8.182;2023-01-24T06:18:31;3.10;;;2.90;;
21886;SDS011;11108;49.988;8.182;2023-01-24T06:20:56;3.73;;;3.43;;
21886;SDS011;11108;49.988;8.182;2023-01-24T06:23:25;3.43;;;3.23;;
21886;SDS011;11108;49.988;8.182;2023-01-24T06:25:51;3.10;;;2.90;;
21886;SDS011;11108;49.988;8.182;2023-01-24T06:28:17;3.50;;;3.20;;
21886;SDS011;11108;49.988;8.182;2023-01-24T06:30:42;3.40;;;3.20;;
21886;SDS011;11108;49.988;8.182;2023-01-24T06:38:21;3.70;;;3.40;;
21886;SDS011;11108;49.988;8.182;2023-01-24T06:40:48;3.20;;;3.00;;
21886;SDS011;11108;49.988;8.182;2023-01-24T06:43:14;3.23;;;3.03;;
21886;SDS011;11108;49.988;8.182;2023-01-24T06:45:39;3.20;;;2.90;;
21886;SDS011;11108;49.988;8.182;2023-01-24T06:48:04;3.27;;;3.07;;
21886;SDS011;11108;49.988;8.182;2023-01-24T06:50:29;4.17;;;3.87;;
21886;SDS011;11108;49.988;8.182;2023-01-24T06:52:56;2.80;;;2.70;;
21886;SDS011;11108;49.988;8.182;2023-01-24T06:55:21;3.00;;;2.80;;
21886;SDS011;11108;49.988;8.182;2023-01-24T06:57:47;3.37;;;3.07;;
21886;SDS011;11108;49.988;8.182;2023-01-24T07:00:18;3.17;;;2.97;;
21886;SDS011;11108;49.988;8.182;2023-01-24T07:02:43;3.03;;;2.83;;
21886;SDS011;11108;49.988;8.182;2023-01-24T07:05:08;3.20;;;2.90;;
21886;SDS011;11108;49.988;8.182;2023-01-24T07:07:34;3.20;;;2.90;;
21886;SDS011;11108;49.988;8.182;2023-01-24T07:09:59;3.73;;;3.40;;
21886;SDS011;11108;49.988;8.182;2023-01-24T07:12:25;3.33;;;3.07;;
21886;SDS011;11108;49.988;8.182;2023-01-24T07:14:50;3.90;;;3.50;;
21886;SDS011;11108;49.988;8.182;2023-01-24T07:17:15;3.17;;;2.93;;
21886;SDS011;11108;49.988;8.182;2023-01-24T07:19:40;2.87;;;2.67;;
21886;SDS011;11108;49.988;8.182;2023-01-24T07:22:09;2.90;;;2.70;;
21886;SDS011;11108;49.988;8.182;2023-01-24T07:24:35;3.30;;;3.10;;
21886;SDS011;11108;49.988;8.182;2023-01-24T07:27:00;3.63;;;3.33;;
21886;SDS011;11108;49.988;8.182;2023-01-24T07:29:26;3.07;;;2.87;;
21886;SDS011;11108;49.988;8.182;2023-01-24T07:31:51;3.20;;;2.87;;
21886;SDS011;11108;49.988;8.182;2023-01-24T07:34:17;3.20;;;3.00;;
21886;SDS011;11108;49.988;8.182;2023-01-24T07:36:43;3.50;;;3.27;;
21886;SDS011;11108;49.988;8.182;2023-01-24T07:39:09;3.63;;;3.33;;
21886;SDS011;11108;49.988;8.182;2023-01-24T07:41:34;8.43;;;4.10;;
21886;SDS011;11108;49.988;8.182;2023-01-24T07:43:59;7.60;;;4.83;;
21886;SDS011;11108;49.988;8.182;2023-01-24T07:46:29;6.77;;;4.27;;
21886;SDS011;11108;49.988;8.182;2023-01-24T07:48:54;8.63;;;4.10;;
21886;SDS011;11108;49.988;8.182;2023-01-24T07:51:20;6.93;;;4.40;;
21886;SDS011;11108;49.988;8.182;2023-01-24T07:53:46;8.40;;;4.17;;
21886;SDS011;11108;49.988;8.182;2023-01-24T07:56:11;5.87;;;3.87;;
21886;SDS011;11108;49.988;8.182;2023-01-24T07:58:36;6.77;;;3.73;;
21886;SDS011;11108;49.988;8.182;2023-01-24T08:01:02;3.87;;;3.17;;
21886;SDS011;11108;49.988;8.182;2023-01-24T08:03:27;6.47;;;3.87;;
21886;SDS011;11108;49.988;8.182;2023-01-24T08:05:52;5.80;;;3.83;;
21886;SDS011;11108;49.988;8.182;2023-01-24T08:08:18;7.77;;;4.20;;
21886;SDS011;11108;49.988;8.182;2023-01-24T08:10:44;4.03;;;3.50;;
21886;SDS011;11108;49.988;8.182;2023-01-24T08:13:09;7.30;;;3.60;;
21886;SDS011;11108;49.988;8.182;2023-01-24T08:15:34;5.63;;;4.03;;
21886;SDS011;11108;49.988;8.182;2023-01-24T08:18:01;4.73;;;3.63;;
21886;SDS011;11108;49.988;8.182;2023-01-24T08:20:26;3.90;;;3.50;;
21886;SDS011;11108;49.988;8.182;2023-01-24T08:22:53;4.17;;;3.67;;
21886;SDS011;11108;49.988;8.182;2023-01-24T08:25:19;4.50;;;4.00;;
21886;SDS011;11108;49.988;8.182;2023-01-24T08:27:44;5.47;;;4.63;;
21886;SDS011;11108;49.988;8.182;2023-01-24T08:30:09;4.10;;;3.40;;
21886;SDS011;11108;49.988;8.182;2023-01-24T08:32:37;3.67;;;3.37;;
21886;SDS011;11108;49.988;8.182;2023-01-24T08:35:03;4.87;;;3.83;;
21886;SDS011;11108;49.988;8.182;2023-01-24T08:37:28;4.33;;;3.47;;
21886;SDS011;11108;49.988;8.182;2023-01-24T08:39:54;4.10;;;3.40;;
21886;SDS011;11108;49.988;8.182;2023-01-24T08:42:21;3.63;;;3.20;;
21886;SDS011;11108;49.988;8.182;2023-01-24T08:44:46;5.03;;;3.30;;
21886;SDS011;11108;49.988;8.182;2023-01-24T08:47:12;7.00;;;3.30;;
21886;SDS011;11108;49.988;8.182;2023-01-24T08:49:37;5.10;;;3.30;;
21886;SDS011;11108;49.988;8.182;2023-01-24T08:52:02;4.60;;;3.50;;
21886;SDS011;11108;49.988;8.182;2023-01-24T08:54:28;3.30;;;3.07;;
21886;SDS011;11108;49.988;8.182;2023-01-24T08:56:53;4.77;;;3.33;;
21886;SDS011;11108;49.988;8.182;2023-01-24T08:59:19;5.67;;;3.80;;
21886;SDS011;11108;49.988;8.182;2023-01-24T09:01:44;4.57;;;3.20;;
21886;SDS011;11108;49.988;8.182;2023-01-24T09:04:10;3.50;;;3.20;;
21886;SDS011;11108;49.988;8.182;2023-01-24T09:06:35;4.07;;;3.33;;
21886;SDS011;11108;49.988;8.182;2023-01-24T09:09:01;4.77;;;3.53;;
21886;SDS011;11108;49.988;8.182;2023-01-24T09:11:27;4.50;;;3.33;;
21886;SDS011;11108;49.988;8.182;2023-01-24T09:13:53;3.73;;;3.43;;
21886;SDS011;11108;49.988;8.182;2023-01-24T09:16:18;3.97;;;3.60;;
21886;SDS011;11108;49.988;8.182;2023-01-24T09:18:43;3.47;;;3.17;;
21886;SDS011;11108;49.988;8.182;2023-01-24T09:21:08;4.30;;;3.90;;
21886;SDS011;11108;49.988;8.182;2023-01-24T09:23:33;5.70;;;3.30;;
21886;SDS011;11108;49.988;8.182;2023-01-24T09:25:59;3.80;;;3.50;;
21886;SDS011;11108;49.988;8.182;2023-01-24T09:28:24;3.83;;;3.53;;
21886;SDS011;11108;49.988;8.182;2023-01-24T09:30:49;5.40;;;3.40;;
21886;SDS011;11108;49.988;8.182;2023-01-24T09:33:15;3.20;;;2.97;;
21886;SDS011;11108;49.988;8.182;2023-01-24T09:35:42;3.70;;;3.40;;
21886;SDS011;11108;49.988;8.182;2023-01-24T09:38:07;2.73;;;2.63;;
21886;SDS011;11108;49.988;8.182;2023-01-24T09:40:40;4.03;;;3.17;;
21886;SDS011;11108;49.988;8.182;2023-01-24T09:43:18;3.33;;;3.03;;
21886;SDS011;11108;49.988;8.182;2023-01-24T09:45:52;3.43;;;3.13;;
21886;SDS011;11108;49.988;8.182;2023-01-24T09:48:22;3.37;;;3.17;;
21886;SDS011;11108;49.988;8.182;2023-01-24T09:50:49;3.40;;;3.07;;
21886;SDS011;11108;49.988;8.182;2023-01-24T09:53:24;3.43;;;3.13;;
21886;SDS011;11108;49.988;8.182;2023-01-24T09:55:51;4.33;;;3.23;;
21886;SDS011;11108;49.988;8.182;2023-01-24T09:58:39;3.80;;;3.40;;
21886;SDS011;11108;49.988;8.182;2023-01-24T10:01:09;3.23;;;2.93;;
21886;SDS011;11108;49.988;8.182;2023-01-24T10:03:35;3.97;;;3.10;;
21886;SDS011;11108;49.988;8.182;2023-01-24T10:06:19;3.60;;;3.10;;
21886;SDS011;11108;49.988;8.182;2023-01-24T10:16:37;3.57;;;3.27;;
21886;SDS011;11108;49.988;8.182;2023-01-24T10:24:20;3.03;;;2.83;;
21886;SDS011;11108;49.988;8.182;2023-01-24T10:26:52;3.20;;;2.90;;
21886;SDS011;11108;49.988;8.182;2023-01-24T10:29:21;3.30;;;3.00;;
21886;SDS011;11108;49.988;8.182;2023-01-24T10:31:52;3.40;;;3.10;;
21886;SDS011;11108;49.988;8.182;2023-01-24T10:34:31;3.43;;;3.03;;
21886;SDS011;11108;49.988;8.182;2023-01-24T10:36:58;2.60;;;2.40;;
21886;SDS011;11108;49.988;8.182;2023-01-24T10:39:25;3.40;;;3.07;;
21886;SDS011;11108;49.988;8.182;2023-01-24T10:41:52;3.67;;;3.00;;
21886;SDS011;11108;49.988;8.182;2023-01-24T10:44:18;4.17;;;2.80;;
21886;SDS011;11108;49.988;8.182;2023-01-24T10:49:26;3.17;;;2.97;;
21886;SDS011;11108;49.988;8.182;2023-01-24T10:54:42;3.20;;;2.90;;
21886;SDS011;11108;49.988;8.182;2023-01-24T10:57:14;4.03;;;3.73;;
21886;SDS011;11108;49.988;8.182;2023-01-24T10:59:41;3.00;;;2.80;;
21886;SDS011;11108;49.988;8.182;2023-01-24T11:02:09;3.10;;;2.90;;
21886;SDS011;11108;49.988;8.182;2023-01-24T11:04:43;2.97;;;2.77;;
21886;SDS011;11108;49.988;8.182;2023-01-24T11:07:19;3.20;;;3.00;;
21886;SDS011;11108;49.988;8.182;2023-01-24T11:09:48;4.13;;;3.33;;
21886;SDS011;11108;49.988;8.182;2023-01-24T11:12:13;3.37;;;3.10;;
21886;SDS011;11108;49.988;8.182;2023-01-24T11:14:39;3.73;;;3.43;;
21886;SDS011;11108;49.988;8.182;2023-01-24T11:17:04;3.07;;;2.77;;
21886;SDS011;11108;49.988;8.182;2023-01-24T11:19:56;2.80;;;2.60;;
21886;SDS011;11108;49.988;8.182;2023-01-24T11:22:23;4.13;;;3.00;;
21886;SDS011;11108;49.988;8.182;2023-01-24T11:24:48;3.30;;;3.10;;
21886;SDS011;11108;49.988;8.182;2023-01-24T11:27:15;2.97;;;2.77;;
21886;SDS011;11108;49.988;8.182;2023-01-24T11:29:40;3.40;;;3.10;;
21886;SDS011;11108;49.988;8.182;2023-01-24T11:34:43;3.37;;;3.17;;
21886;SDS011;11108;49.988;8.182;2023-01-24T11:42:38;3.63;;;3.30;;
21886;SDS011;11108;49.988;8.182;2023-01-24T11:47:53;4.70;;;3.20;;
21886;SDS011;11108;49.988;8.182;2023-01-24T11:55:39;3.73;;;3.43;;
21886;SDS011;11108;49.988;8.182;2023-01-24T11:58:17;3.97;;;3.30;;
21886;SDS011;11108;49.988;8.182;2023-01-24T12:06:09;3.57;;;3.00;;
21886;SDS011;11108;49.988;8.182;2023-01-24T12:16:37;3.23;;;2.90;;
21886;SDS011;11108;49.988;8.182;2023-01-24T12:21:55;4.33;;;3.10;;
21886;SDS011;11108;49.988;8.182;2023-01-24T12:24:23;3.23;;;2.93;;
21886;SDS011;11108;49.988;8.182;2023-01-24T12:26:56;7.07;;;3.23;;
21886;SDS011;11108;49.988;8.182;2023-01-24T12:31:56;3.60;;;2.97;;
21886;SDS011;11108;49.988;8.182;2023-01-24T12:34:29;4.03;;;2.83;;
21886;SDS011;11108;49.988;8.182;2023-01-24T12:36:58;3.30;;;3.10;;
21886;SDS011;11108;49.988;8.182;2023-01-24T12:39:26;4.07;;;2.80;;
21886;SDS011;11108;49.988;8.182;2023-01-24T12:41:56;2.67;;;2.43;;
21886;SDS011;11108;49.988;8.182;2023-01-24T12:51:59;4.23;;;3.37;;
21886;SDS011;11108;49.988;8.182;2023-01-24T12:54:32;3.20;;;3.00;;
21886;SDS011;11108;49.988;8.182;2023-01-24T12:57:00;3.00;;;2.80;;
21886;SDS011;11108;49.988;8.182;2023-01-24T12:59:28;3.13;;;2.83;;
21886;SDS011;11108;49.988;8.182;2023-01-24T13:10:00;2.93;;;2.73;;
21886;SDS011;11108;49.988;8.182;2023-01-24T13:12:28;3.07;;;2.87;;
21886;SDS011;11108;49.988;8.182;2023-01-24T13:14:55;3.60;;;2.97;;
21886;SDS011;11108;49.988;8.182;2023-01-24T13:17:29;2.93;;;2.73;;
21886;SDS011;11108;49.988;8.182;2023-01-24T13:22:43;2.63;;;2.50;;
21886;SDS011;11108;49.988;8.182;2023-01-24T13:25:33;2.83;;;2.63;;
21886;SDS011;11108;49.988;8.182;2023-01-24T13:30:49;3.00;;;2.80;;
21886;SDS011;11108;49.988;8.182;2023-01-24T13:33:17;2.97;;;2.77;;
21886;SDS011;11108;49.988;8.182;2023-01-24T13:35:50;3.03;;;2.77;;
21886;SDS011;11108;49.988;8.182;2023-01-24T13:40:41;3.50;;;2.80;;
21886;SDS011;11108;49.988;8.182;2023-01-24T13:46:15;2.90;;;2.70;;
21886;SDS011;11108;49.988;8.182;2023-01-24T13:56:23;3.43;;;2.80;;
21886;SDS011;11108;49.988;8.182;2023-01-24T13:58:49;2.83;;;2.63;;
21886;SDS011;11108;49.988;8.182;2023-01-24T14:01:15;2.43;;;2.33;;
21886;SDS011;11108;49.988;8.182;2023-01-24T14:03:46;3.17;;;2.90;;
21886;SDS011;11108;49.988;8.182;2023-01-24T14:06:17;2.90;;;2.50;;
21886;SDS011;11108;49.988;8.182;2023-01-24T14:08:43;3.53;;;2.60;;
21886;SDS011;11108;49.988;8.182;2023-01-24T14:11:17;2.70;;;2.50;;
21886;SDS011;11108;49.988;8.182;2023-01-24T14:18:49;3.17;;;2.97;;
21886;SDS011;11108;49.988;8.182;2023-01-24T14:21:16;2.87;;;2.60;;
21886;SDS011;11108;49.988;8.182;2023-01-24T14:23:42;3.43;;;3.13;;
21886;SDS011;11108;49.988;8.182;2023-01-24T14:26:12;3.17;;;2.97;;
21886;SDS011;11108;49.988;8.182;2023-01-24T14:28:40;4.13;;;3.13;;
21886;SDS011;11108;49.988;8.182;2023-01-24T14:31:07;2.80;;;2.60;;
21886;SDS011;11108;49.988;8.182;2023-01-24T14:33:47;2.77;;;2.60;;
21886;SDS011;11108;49.988;8.182;2023-01-24T14:36:19;2.53;;;2.33;;
21886;SDS011;11108;49.988;8.182;2023-01-24T14:38:46;2.20;;;2.10;;
21886;SDS011;11108;49.988;8.182;2023-01-24T14:41:17;2.80;;;2.60;;
21886;SDS011;11108;49.988;8.182;2023-01-24T14:43:44;2.83;;;2.60;;
21886;SDS011;11108;49.988;8.182;2023-01-24T14:46:12;3.20;;;2.90;;
21886;SDS011;11108;49.988;8.182;2023-01-24T14:48:41;2.67;;;2.47;;
21886;SDS011;11108;49.988;8.182;2023-01-24T14:51:11;5.10;;;2.70;;
21886;SDS011;11108;49.988;8.182;2023-01-24T14:53:38;2.93;;;2.73;;
21886;SDS011;11108;49.988;8.182;2023-01-24T14:56:10;2.80;;;2.60;;
21886;SDS011;11108;49.988;8.182;2023-01-24T14:58:38;3.70;;;2.63;;
21886;SDS011;11108;49.988;8.182;2023-01-24T15:01:03;6.33;;;3.10;;
21886;SDS011;11108;49.988;8.182;2023-01-24T15:03:29;2.70;;;2.50;;
21886;SDS011;11108;49.988;8.182;2023-01-24T15:06:02;3.20;;;2.80;;
21886;SDS011;11108;49.988;8.182;2023-01-24T15:08:28;2.70;;;2.50;;
21886;SDS011;11108;49.988;8.182;2023-01-24T15:10:55;2.67;;;2.50;;
21886;SDS011;11108;49.988;8.182;2023-01-24T15:13:25;3.03;;;2.53;;
21886;SDS011;11108;49.988;8.182;2023-01-24T15:15:51;2.77;;;2.57;;
21886;SDS011;11108;49.988;8.182;2023-01-24T15:18:30;2.63;;;2.43;;
21886;SDS011;11108;49.988;8.182;2023-01-24T15:20:57;2.53;;;2.43;;
21886;SDS011;11108;49.988;8.182;2023-01-24T15:23:23;2.77;;;2.57;;
21886;SDS011;11108;49.988;8.182;2023-01-24T15:25:52;2.50;;;2.30;;
21886;SDS011;11108;49.988;8.182;2023-01-24T15:28:21;3.23;;;2.83;;
21886;SDS011;11108;49.988;8.182;2023-01-24T15:30:54;3.60;;;2.40;;
21886;SDS011;11108;49.988;8.182;2023-01-24T15:33:19;2.43;;;2.30;;
21886;SDS011;11108;49.988;8.182;2023-01-24T15:35:48;2.53;;;2.33;;
21886;SDS011;11108;49.988;8.182;2023-01-24T15:38:24;3.13;;;2.57;;
21886;SDS011;11108;49.988;8.182;2023-01-24T15:40:52;3.07;;;2.77;;
21886;SDS011;11108;49.988;8.182;2023-01-24T15:43:32;2.47;;;2.27;;
21886;SDS011;11108;49.988;8.182;2023-01-24T15:46:17;2.97;;;2.30;;
21886;SDS011;11108;49.988;8.182;2023-01-24T15:49:03;2.83;;;2.27;;
21886;SDS011;11108;49.988;8.182;2023-01-24T15:53:53;4.17;;;2.33;;
21886;SDS011;11108;49.988;8.182;2023-01-24T15:56:20;5.67;;;3.13;;
21886;SDS011;11108;49.988;8.182;2023-01-24T15:58:46;4.23;;;2.30;;
21886;SDS011;11108;49.988;8.182;2023-01-24T16:01:12;2.70;;;2.50;;
21886;SDS011;11108;49.988;8.182;2023-01-24T16:03:37;2.93;;;1.97;;
21886;SDS011;11108;49.988;8.182;2023-01-24T16:06:02;4.00;;;2.60;;
21886;SDS011;11108;49.988;8.182;2023-01-24T16:08:27;4.93;;;2.40;;
21886;SDS011;11108;49.988;8.182;2023-01-24T16:10:53;2.80;;;2.50;;
21886;SDS011;11108;49.988;8.182;2023-01-24T16:13:39;2.20;;;2.00;;
21886;SDS011;11108;49.988;8.182;2023-01-24T16:16:06;4.70;;;2.20;;
21886;SDS011;11108;49.988;8.182;2023-01-24T16:18:31;3.60;;;2.40;;
21886;SDS011;11108;49.988;8.182;2023-01-24T16:20:56;2.80;;;2.60;;
21886;SDS011;11108;49.988;8.182;2023-01-24T16:23:22;3.70;;;2.57;;
21886;SDS011;11108;49.988;8.182;2023-01-24T16:25:48;3.43;;;2.53;;
21886;SDS011;11108;49.988;8.182;2023-01-24T16:28:18;2.90;;;2.70;;
21886;SDS011;11108;49.988;8.182;2023-01-24T16:30:44;2.30;;;2.20;;
21886;SDS011;11108;49.988;8.182;2023-01-24T16:33:09;2.60;;;2.40;;
21886;SDS011;11108;49.988;8.182;2023-01-24T16:35:34;3.43;;;2.40;;
21886;SDS011;11108;49.988;8.182;2023-01-24T16:38:00;2.90;;;2.70;;
21886;SDS011;11108;49.988;8.182;2023-01-24T16:40:25;4.07;;;2.37;;
21886;SDS011;11108;49.988;8.182;2023-01-24T16:42:50;3.27;;;2.70;;